sensor_id;sensor_type;location;lat;lon;timestamp;P1;durP1;ratioP1;P2;durP2;ratioP2
64938;SDS011;51453;47.738;7.420;2022-09-09T00:04:21;2.17;;;1.10;;
64938;SDS011;51453;47.738;7.420;2022-09-09T00:15:18;4.43;;;1.00;;
64938;SDS011;51453;47.738;7.420;2022-09-09T00:20:24;3.75;;;1.25;;
64938;SDS011;51453;47.738;7.420;2022-09-09T00:22:59;6.72;;;0.90;;
64938;SDS011;51453;47.738;7.420;2022-09-09T00:25:43;1.67;;;0.82;;
64938;SDS011;51453;47.738;7.420;2022-09-09T00:28:25;5.30;;;1.10;;
64938;SDS011;51453;47.738;7.420;2022-09-09T00:30:52;6.88;;;1.05;;
64938;SDS011;51453;47.738;7.420;2022-09-09T00:33:20;2.78;;;0.82;;
64938;SDS011;51453;47.738;7.420;2022-09-09T00:35:58;1.70;;;0.80;;
64938;SDS011;51453;47.738;7.420;2022-09-09T00:38:33;4.53;;;1.00;;
64938;SDS011;51453;47.738;7.420;2022-09-09T00:43:39;3.60;;;0.80;;
64938;SDS011;51453;47.738;7.420;2022-09-09T00:59:43;1.98;;;0.73;;
64938;SDS011;51453;47.738;7.420;2022-09-09T01:05:13;2.85;;;1.20;;
64938;SDS011;51453;47.738;7.420;2022-09-09T01:07:52;5.30;;;1.10;;
64938;SDS011;51453;47.738;7.420;2022-09-09T01:10:40;9.23;;;1.30;;
64938;SDS011;51453;47.738;7.420;2022-09-09T01:13:25;3.08;;;0.85;;
64938;SDS011;51453;47.738;7.420;2022-09-09T01:15:55;2.08;;;0.77;;
64938;SDS011;51453;47.738;7.420;2022-09-09T01:18:23;3.47;;;1.10;;
64938;SDS011;51453;47.738;7.420;2022-09-09T01:23:44;1.88;;;0.90;;
64938;SDS011;51453;47.738;7.420;2022-09-09T01:29:02;4.43;;;0.90;;
64938;SDS011;51453;47.738;7.420;2022-09-09T01:31:34;4.72;;;0.98;;
64938;SDS011;51453;47.738;7.420;2022-09-09T01:34:07;4.60;;;0.98;;
64938;SDS011;51453;47.738;7.420;2022-09-09T01:36:49;2.67;;;1.25;;
64938;SDS011;51453;47.738;7.420;2022-09-09T01:39:34;3.22;;;1.02;;
64938;SDS011;51453;47.738;7.420;2022-09-09T01:42:01;4.15;;;0.90;;
64938;SDS011;51453;47.738;7.420;2022-09-09T01:44:29;3.33;;;0.98;;
64938;SDS011;51453;47.738;7.420;2022-09-09T01:46:55;6.25;;;1.08;;
64938;SDS011;51453;47.738;7.420;2022-09-09T01:49:21;2.45;;;1.00;;
64938;SDS011;51453;47.738;7.420;2022-09-09T01:51:49;3.22;;;0.90;;
64938;SDS011;51453;47.738;7.420;2022-09-09T01:54:18;4.75;;;1.15;;
64938;SDS011;51453;47.738;7.420;2022-09-09T02:02:10;5.95;;;1.27;;
64938;SDS011;51453;47.738;7.420;2022-09-09T02:07:48;3.95;;;1.15;;
64938;SDS011;51453;47.738;7.420;2022-09-09T02:10:17;3.78;;;1.38;;
64938;SDS011;51453;47.738;7.420;2022-09-09T02:15:26;5.57;;;1.10;;
64938;SDS011;51453;47.738;7.420;2022-09-09T02:18:04;6.90;;;1.40;;
64938;SDS011;51453;47.738;7.420;2022-09-09T02:20:33;6.35;;;1.67;;
64938;SDS011;51453;47.738;7.420;2022-09-09T02:23:02;3.63;;;1.27;;
64938;SDS011;51453;47.738;7.420;2022-09-09T02:25:30;3.03;;;1.10;;
64938;SDS011;51453;47.738;7.420;2022-09-09T02:27:56;3.08;;;1.02;;
64938;SDS011;51453;47.738;7.420;2022-09-09T02:30:25;4.30;;;1.10;;
64938;SDS011;51453;47.738;7.420;2022-09-09T02:32:54;3.08;;;1.30;;
64938;SDS011;51453;47.738;7.420;2022-09-09T02:35:23;3.83;;;1.20;;
64938;SDS011;51453;47.738;7.420;2022-09-09T02:37:51;6.57;;;1.70;;
64938;SDS011;51453;47.738;7.420;2022-09-09T02:40:21;2.92;;;1.02;;
64938;SDS011;51453;47.738;7.420;2022-09-09T02:42:48;2.92;;;1.10;;
64938;SDS011;51453;47.738;7.420;2022-09-09T02:45:18;4.32;;;1.23;;
64938;SDS011;51453;47.738;7.420;2022-09-09T02:47:48;2.60;;;1.30;;
64938;SDS011;51453;47.738;7.420;2022-09-09T02:50:24;1.35;;;0.90;;
64938;SDS011;51453;47.738;7.420;2022-09-09T02:53:05;2.67;;;1.08;;
64938;SDS011;51453;47.738;7.420;2022-09-09T02:55:47;3.42;;;1.20;;
64938;SDS011;51453;47.738;7.420;2022-09-09T02:58:14;2.03;;;1.00;;
64938;SDS011;51453;47.738;7.420;2022-09-09T03:00:42;2.85;;;1.05;;
64938;SDS011;51453;47.738;7.420;2022-09-09T03:03:10;5.90;;;1.30;;
64938;SDS011;51453;47.738;7.420;2022-09-09T03:05:36;4.07;;;1.38;;
64938;SDS011;51453;47.738;7.420;2022-09-09T03:08:04;2.67;;;1.05;;
64938;SDS011;51453;47.738;7.420;2022-09-09T03:10:30;5.38;;;1.40;;
64938;SDS011;51453;47.738;7.420;2022-09-09T03:12:57;3.50;;;1.20;;
64938;SDS011;51453;47.738;7.420;2022-09-09T03:15:22;3.40;;;1.50;;
64938;SDS011;51453;47.738;7.420;2022-09-09T03:17:48;1.77;;;0.90;;
64938;SDS011;51453;47.738;7.420;2022-09-09T03:20:14;6.68;;;1.55;;
64938;SDS011;51453;47.738;7.420;2022-09-09T03:22:40;6.72;;;1.42;;
64938;SDS011;51453;47.738;7.420;2022-09-09T03:25:05;4.65;;;1.20;;
64938;SDS011;51453;47.738;7.420;2022-09-09T03:27:31;3.78;;;1.40;;
64938;SDS011;51453;47.738;7.420;2022-09-09T03:29:58;3.72;;;1.10;;
64938;SDS011;51453;47.738;7.420;2022-09-09T03:32:24;4.00;;;1.08;;
64938;SDS011;51453;47.738;7.420;2022-09-09T03:34:51;5.35;;;1.20;;
64938;SDS011;51453;47.738;7.420;2022-09-09T03:37:17;3.55;;;1.27;;
64938;SDS011;51453;47.738;7.420;2022-09-09T03:39:44;5.30;;;1.45;;
64938;SDS011;51453;47.738;7.420;2022-09-09T03:42:12;2.25;;;1.13;;
64938;SDS011;51453;47.738;7.420;2022-09-09T03:44:39;2.40;;;1.10;;
64938;SDS011;51453;47.738;7.420;2022-09-09T03:47:07;2.35;;;1.00;;
64938;SDS011;51453;47.738;7.420;2022-09-09T03:49:33;2.45;;;1.25;;
64938;SDS011;51453;47.738;7.420;2022-09-09T03:51:58;6.18;;;1.20;;
64938;SDS011;51453;47.738;7.420;2022-09-09T03:54:26;1.25;;;1.15;;
64938;SDS011;51453;47.738;7.420;2022-09-09T03:56:52;3.90;;;1.38;;
64938;SDS011;51453;47.738;7.420;2022-09-09T03:59:18;2.78;;;1.20;;
64938;SDS011;51453;47.738;7.420;2022-09-09T04:01:45;1.40;;;1.23;;
64938;SDS011;51453;47.738;7.420;2022-09-09T04:04:12;4.03;;;1.23;;
64938;SDS011;51453;47.738;7.420;2022-09-09T04:06:38;2.03;;;1.10;;
64938;SDS011;51453;47.738;7.420;2022-09-09T04:09:03;4.20;;;1.40;;
64938;SDS011;51453;47.738;7.420;2022-09-09T04:11:29;1.30;;;1.13;;
64938;SDS011;51453;47.738;7.420;2022-09-09T04:13:55;6.13;;;1.20;;
64938;SDS011;51453;47.738;7.420;2022-09-09T04:16:21;1.63;;;1.23;;
64938;SDS011;51453;47.738;7.420;2022-09-09T04:18:47;3.90;;;1.42;;
64938;SDS011;51453;47.738;7.420;2022-09-09T04:21:13;4.35;;;1.35;;
64938;SDS011;51453;47.738;7.420;2022-09-09T04:23:40;1.95;;;1.00;;
64938;SDS011;51453;47.738;7.420;2022-09-09T04:26:06;2.83;;;1.15;;
64938;SDS011;51453;47.738;7.420;2022-09-09T04:28:33;3.30;;;1.30;;
64938;SDS011;51453;47.738;7.420;2022-09-09T04:31:04;3.90;;;1.25;;
64938;SDS011;51453;47.738;7.420;2022-09-09T04:33:32;2.03;;;1.13;;
64938;SDS011;51453;47.738;7.420;2022-09-09T04:35:57;4.20;;;1.20;;
64938;SDS011;51453;47.738;7.420;2022-09-09T04:38:23;5.63;;;1.17;;
64938;SDS011;51453;47.738;7.420;2022-09-09T04:40:49;4.13;;;1.20;;
64938;SDS011;51453;47.738;7.420;2022-09-09T04:43:16;4.60;;;1.58;;
64938;SDS011;51453;47.738;7.420;2022-09-09T04:45:44;2.38;;;1.30;;
64938;SDS011;51453;47.738;7.420;2022-09-09T04:48:13;2.83;;;1.20;;
64938;SDS011;51453;47.738;7.420;2022-09-09T04:50:38;3.13;;;1.25;;
64938;SDS011;51453;47.738;7.420;2022-09-09T04:53:05;5.38;;;1.35;;
64938;SDS011;51453;47.738;7.420;2022-09-09T04:55:31;1.85;;;1.10;;
64938;SDS011;51453;47.738;7.420;2022-09-09T04:58:06;4.18;;;1.15;;
64938;SDS011;51453;47.738;7.420;2022-09-09T05:00:34;3.28;;;1.52;;
64938;SDS011;51453;47.738;7.420;2022-09-09T05:03:04;4.35;;;1.45;;
64938;SDS011;51453;47.738;7.420;2022-09-09T05:05:31;5.35;;;1.80;;
64938;SDS011;51453;47.738;7.420;2022-09-09T05:08:05;6.20;;;1.40;;
64938;SDS011;51453;47.738;7.420;2022-09-09T05:10:33;5.55;;;1.63;;
64938;SDS011;51453;47.738;7.420;2022-09-09T05:13:01;5.28;;;1.88;;
64938;SDS011;51453;47.738;7.420;2022-09-09T05:15:27;2.78;;;1.60;;
64938;SDS011;51453;47.738;7.420;2022-09-09T05:17:56;5.03;;;2.03;;
64938;SDS011;51453;47.738;7.420;2022-09-09T05:20:23;4.97;;;1.60;;
64938;SDS011;51453;47.738;7.420;2022-09-09T05:22:52;4.03;;;1.90;;
64938;SDS011;51453;47.738;7.420;2022-09-09T05:25:21;4.78;;;1.85;;
64938;SDS011;51453;47.738;7.420;2022-09-09T05:27:50;3.17;;;1.63;;
64938;SDS011;51453;47.738;7.420;2022-09-09T05:30:17;4.47;;;1.90;;
64938;SDS011;51453;47.738;7.420;2022-09-09T05:32:43;4.78;;;1.90;;
64938;SDS011;51453;47.738;7.420;2022-09-09T05:35:09;3.42;;;1.88;;
64938;SDS011;51453;47.738;7.420;2022-09-09T05:37:35;3.50;;;2.00;;
64938;SDS011;51453;47.738;7.420;2022-09-09T05:40:01;4.72;;;1.90;;
64938;SDS011;51453;47.738;7.420;2022-09-09T05:42:29;3.55;;;1.70;;
64938;SDS011;51453;47.738;7.420;2022-09-09T05:44:56;6.78;;;2.03;;
64938;SDS011;51453;47.738;7.420;2022-09-09T05:47:23;2.45;;;1.55;;
64938;SDS011;51453;47.738;7.420;2022-09-09T05:49:48;5.82;;;1.90;;
64938;SDS011;51453;47.738;7.420;2022-09-09T05:52:14;4.32;;;1.83;;
64938;SDS011;51453;47.738;7.420;2022-09-09T05:54:40;6.78;;;1.70;;
64938;SDS011;51453;47.738;7.420;2022-09-09T05:57:06;2.95;;;1.95;;
64938;SDS011;51453;47.738;7.420;2022-09-09T05:59:32;2.75;;;1.90;;
64938;SDS011;51453;47.738;7.420;2022-09-09T06:01:57;3.90;;;2.00;;
64938;SDS011;51453;47.738;7.420;2022-09-09T06:04:24;4.93;;;2.20;;
64938;SDS011;51453;47.738;7.420;2022-09-09T06:06:50;4.57;;;2.08;;
64938;SDS011;51453;47.738;7.420;2022-09-09T06:09:15;4.88;;;1.90;;
64938;SDS011;51453;47.738;7.420;2022-09-09T06:11:41;3.25;;;1.77;;
64938;SDS011;51453;47.738;7.420;2022-09-09T06:14:07;3.17;;;1.70;;
64938;SDS011;51453;47.738;7.420;2022-09-09T06:16:34;6.07;;;1.58;;
64938;SDS011;51453;47.738;7.420;2022-09-09T06:19:00;6.85;;;1.77;;
64938;SDS011;51453;47.738;7.420;2022-09-09T06:21:34;3.78;;;1.85;;
64938;SDS011;51453;47.738;7.420;2022-09-09T06:24:02;2.83;;;1.55;;
64938;SDS011;51453;47.738;7.420;2022-09-09T06:26:32;3.75;;;1.42;;
64938;SDS011;51453;47.738;7.420;2022-09-09T06:28:59;5.65;;;1.73;;
64938;SDS011;51453;47.738;7.420;2022-09-09T06:31:28;5.22;;;1.25;;
64938;SDS011;51453;47.738;7.420;2022-09-09T06:33:56;9.20;;;1.48;;
64938;SDS011;51453;47.738;7.420;2022-09-09T06:36:33;3.20;;;1.00;;
64938;SDS011;51453;47.738;7.420;2022-09-09T06:39:00;6.72;;;1.20;;
64938;SDS011;51453;47.738;7.420;2022-09-09T06:41:27;2.95;;;1.05;;
64938;SDS011;51453;47.738;7.420;2022-09-09T06:43:54;4.18;;;1.35;;
64938;SDS011;51453;47.738;7.420;2022-09-09T06:46:24;5.10;;;1.52;;
64938;SDS011;51453;47.738;7.420;2022-09-09T06:48:53;3.38;;;1.25;;
64938;SDS011;51453;47.738;7.420;2022-09-09T06:51:34;5.20;;;1.05;;
64938;SDS011;51453;47.738;7.420;2022-09-09T06:54:01;5.97;;;1.23;;
64938;SDS011;51453;47.738;7.420;2022-09-09T06:56:35;4.95;;;1.00;;
64938;SDS011;51453;47.738;7.420;2022-09-09T06:59:03;3.03;;;1.10;;
64938;SDS011;51453;47.738;7.420;2022-09-09T07:01:34;1.77;;;1.00;;
64938;SDS011;51453;47.738;7.420;2022-09-09T07:04:01;3.72;;;1.30;;
64938;SDS011;51453;47.738;7.420;2022-09-09T07:06:30;4.43;;;0.80;;
64938;SDS011;51453;47.738;7.420;2022-09-09T07:08:58;3.53;;;0.88;;
64938;SDS011;51453;47.738;7.420;2022-09-09T07:11:27;6.32;;;0.90;;
64938;SDS011;51453;47.738;7.420;2022-09-09T07:13:54;1.83;;;0.90;;
64938;SDS011;51453;47.738;7.420;2022-09-09T07:16:22;4.15;;;0.68;;
64938;SDS011;51453;47.738;7.420;2022-09-09T07:18:52;2.38;;;0.60;;
64938;SDS011;51453;47.738;7.420;2022-09-09T07:21:22;3.40;;;0.90;;
64938;SDS011;51453;47.738;7.420;2022-09-09T07:23:51;4.28;;;0.80;;
64938;SDS011;51453;47.738;7.420;2022-09-09T07:26:18;5.63;;;1.00;;
64938;SDS011;51453;47.738;7.420;2022-09-09T07:28:45;2.60;;;0.68;;
64938;SDS011;51453;47.738;7.420;2022-09-09T07:31:21;5.97;;;1.23;;
64938;SDS011;51453;47.738;7.420;2022-09-09T07:33:52;8.13;;;1.35;;
64938;SDS011;51453;47.738;7.420;2022-09-09T07:36:22;5.05;;;0.90;;
64938;SDS011;51453;47.738;7.420;2022-09-09T07:38:58;4.93;;;0.85;;
64938;SDS011;51453;47.738;7.420;2022-09-09T07:41:28;7.63;;;0.70;;
64938;SDS011;51453;47.738;7.420;2022-09-09T07:43:56;5.72;;;1.23;;
64938;SDS011;51453;47.738;7.420;2022-09-09T07:46:24;3.67;;;0.95;;
64938;SDS011;51453;47.738;7.420;2022-09-09T07:48:52;2.67;;;0.70;;
64938;SDS011;51453;47.738;7.420;2022-09-09T07:51:20;4.00;;;0.90;;
64938;SDS011;51453;47.738;7.420;2022-09-09T07:53:59;6.15;;;1.00;;
64938;SDS011;51453;47.738;7.420;2022-09-09T07:56:27;3.08;;;0.82;;
64938;SDS011;51453;47.738;7.420;2022-09-09T07:58:54;6.53;;;0.70;;
64938;SDS011;51453;47.738;7.420;2022-09-09T08:01:25;3.40;;;0.75;;
64938;SDS011;51453;47.738;7.420;2022-09-09T08:03:56;3.78;;;0.80;;
64938;SDS011;51453;47.738;7.420;2022-09-09T08:06:24;3.78;;;0.88;;
64938;SDS011;51453;47.738;7.420;2022-09-09T08:08:51;4.90;;;0.90;;
64938;SDS011;51453;47.738;7.420;2022-09-09T08:11:19;5.10;;;0.95;;
64938;SDS011;51453;47.738;7.420;2022-09-09T08:13:48;5.20;;;1.25;;
64938;SDS011;51453;47.738;7.420;2022-09-09T08:16:16;3.33;;;0.88;;
64938;SDS011;51453;47.738;7.420;2022-09-09T08:18:44;4.43;;;0.73;;
64938;SDS011;51453;47.738;7.420;2022-09-09T08:21:17;7.22;;;0.70;;
64938;SDS011;51453;47.738;7.420;2022-09-09T08:23:45;6.00;;;0.90;;
64938;SDS011;51453;47.738;7.420;2022-09-09T08:28:40;5.43;;;1.00;;
64938;SDS011;51453;47.738;7.420;2022-09-09T08:31:10;5.00;;;0.85;;
64938;SDS011;51453;47.738;7.420;2022-09-09T08:33:40;6.90;;;1.50;;
64938;SDS011;51453;47.738;7.420;2022-09-09T08:36:09;4.78;;;1.05;;
64938;SDS011;51453;47.738;7.420;2022-09-09T08:38:36;6.95;;;0.70;;
64938;SDS011;51453;47.738;7.420;2022-09-09T08:57:47;7.63;;;1.17;;
64938;SDS011;51453;47.738;7.420;2022-09-09T09:00:19;4.13;;;0.65;;
64938;SDS011;51453;47.738;7.420;2022-09-09T09:05:30;3.47;;;0.90;;
64938;SDS011;51453;47.738;7.420;2022-09-09T09:08:14;2.60;;;0.70;;
64938;SDS011;51453;47.738;7.420;2022-09-09T09:13:17;5.13;;;0.85;;
64938;SDS011;51453;47.738;7.420;2022-09-09T09:15:46;5.20;;;0.68;;
64938;SDS011;51453;47.738;7.420;2022-09-09T09:18:18;3.80;;;0.70;;
64938;SDS011;51453;47.738;7.420;2022-09-09T09:20:50;6.40;;;0.90;;
64938;SDS011;51453;47.738;7.420;2022-09-09T09:23:22;3.65;;;0.80;;
64938;SDS011;51453;47.738;7.420;2022-09-09T09:25:49;5.25;;;0.95;;
64938;SDS011;51453;47.738;7.420;2022-09-09T09:28:18;2.78;;;0.70;;
64938;SDS011;51453;47.738;7.420;2022-09-09T09:35:48;6.68;;;0.90;;
64938;SDS011;51453;47.738;7.420;2022-09-09T09:38:16;6.35;;;1.00;;
64938;SDS011;51453;47.738;7.420;2022-09-09T09:40:52;7.55;;;0.80;;
64938;SDS011;51453;47.738;7.420;2022-09-09T09:43:22;4.00;;;0.80;;
64938;SDS011;51453;47.738;7.420;2022-09-09T09:45:51;3.88;;;0.75;;
64938;SDS011;51453;47.738;7.420;2022-09-09T09:48:17;4.68;;;0.70;;
64938;SDS011;51453;47.738;7.420;2022-09-09T09:50:59;6.18;;;1.17;;
64938;SDS011;51453;47.738;7.420;2022-09-09T09:53:33;7.00;;;0.97;;
64938;SDS011;51453;47.738;7.420;2022-09-09T09:56:01;5.22;;;0.93;;
64938;SDS011;51453;47.738;7.420;2022-09-09T09:58:32;4.00;;;0.63;;
64938;SDS011;51453;47.738;7.420;2022-09-09T10:01:02;3.38;;;0.68;;
64938;SDS011;51453;47.738;7.420;2022-09-09T10:03:29;7.35;;;1.20;;
64938;SDS011;51453;47.738;7.420;2022-09-09T10:05:57;4.03;;;0.82;;
64938;SDS011;51453;47.738;7.420;2022-09-09T10:08:23;7.07;;;1.23;;
64938;SDS011;51453;47.738;7.420;2022-09-09T10:16:22;7.05;;;0.80;;
64938;SDS011;51453;47.738;7.420;2022-09-09T10:19:15;11.32;;;1.90;;
64938;SDS011;51453;47.738;7.420;2022-09-09T10:27:56;6.30;;;1.23;;
64938;SDS011;51453;47.738;7.420;2022-09-09T10:30:54;5.10;;;0.90;;
64938;SDS011;51453;47.738;7.420;2022-09-09T10:33:32;4.15;;;0.60;;
64938;SDS011;51453;47.738;7.420;2022-09-09T10:38:47;3.35;;;1.08;;
64938;SDS011;51453;47.738;7.420;2022-09-09T10:47:13;4.95;;;1.02;;
64938;SDS011;51453;47.738;7.420;2022-09-09T10:50:08;6.60;;;1.38;;
64938;SDS011;51453;47.738;7.420;2022-09-09T10:55:24;8.32;;;1.00;;
64938;SDS011;51453;47.738;7.420;2022-09-09T10:57:58;4.03;;;0.80;;
64938;SDS011;51453;47.738;7.420;2022-09-09T11:00:31;6.70;;;1.02;;
64938;SDS011;51453;47.738;7.420;2022-09-09T11:03:04;3.38;;;0.65;;
64938;SDS011;51453;47.738;7.420;2022-09-09T11:05:42;9.50;;;1.23;;
64938;SDS011;51453;47.738;7.420;2022-09-09T11:13:24;3.45;;;0.85;;
64938;SDS011;51453;47.738;7.420;2022-09-09T11:16:05;3.40;;;0.75;;
64938;SDS011;51453;47.738;7.420;2022-09-09T11:19:01;4.32;;;0.90;;
64938;SDS011;51453;47.738;7.420;2022-09-09T11:21:35;3.40;;;0.75;;
64938;SDS011;51453;47.738;7.420;2022-09-09T11:24:08;3.60;;;0.60;;
64938;SDS011;51453;47.738;7.420;2022-09-09T11:26:41;4.75;;;1.15;;
64938;SDS011;51453;47.738;7.420;2022-09-09T11:40:56;6.10;;;0.80;;
64938;SDS011;51453;47.738;7.420;2022-09-09T11:46:05;7.00;;;0.90;;
64938;SDS011;51453;47.738;7.420;2022-09-09T11:48:37;4.88;;;0.80;;
64938;SDS011;51453;47.738;7.420;2022-09-09T11:51:11;7.00;;;0.70;;
64938;SDS011;51453;47.738;7.420;2022-09-09T11:53:51;2.55;;;0.63;;
64938;SDS011;51453;47.738;7.420;2022-09-09T11:56:26;4.05;;;0.68;;
64938;SDS011;51453;47.738;7.420;2022-09-09T12:01:35;3.53;;;0.90;;
64938;SDS011;51453;47.738;7.420;2022-09-09T12:09:21;7.35;;;1.00;;
64938;SDS011;51453;47.738;7.420;2022-09-09T12:14:37;8.82;;;1.05;;
64938;SDS011;51453;47.738;7.420;2022-09-09T12:17:19;2.78;;;0.70;;
64938;SDS011;51453;47.738;7.420;2022-09-09T12:19:47;7.70;;;1.00;;
64938;SDS011;51453;47.738;7.420;2022-09-09T12:25:16;3.55;;;0.85;;
64938;SDS011;51453;47.738;7.420;2022-09-09T12:33:22;3.17;;;0.60;;
64938;SDS011;51453;47.738;7.420;2022-09-09T12:35:53;2.78;;;0.55;;
64938;SDS011;51453;47.738;7.420;2022-09-09T12:38:24;4.53;;;0.85;;
64938;SDS011;51453;47.738;7.420;2022-09-09T12:41:22;3.63;;;0.40;;
64938;SDS011;51453;47.738;7.420;2022-09-09T12:43:49;9.70;;;0.77;;
64938;SDS011;51453;47.738;7.420;2022-09-09T12:46:21;4.53;;;0.50;;
64938;SDS011;51453;47.738;7.420;2022-09-09T12:49:26;3.08;;;0.52;;
64938;SDS011;51453;47.738;7.420;2022-09-09T12:51:52;1.48;;;0.40;;
64938;SDS011;51453;47.738;7.420;2022-09-09T12:54:18;1.33;;;0.32;;
64938;SDS011;51453;47.738;7.420;2022-09-09T12:56:45;2.40;;;0.43;;
64938;SDS011;51453;47.738;7.420;2022-09-09T12:59:26;2.95;;;0.50;;
64938;SDS011;51453;47.738;7.420;2022-09-09T13:02:24;5.18;;;0.95;;
64938;SDS011;51453;47.738;7.420;2022-09-09T13:04:52;3.35;;;0.60;;
64938;SDS011;51453;47.738;7.420;2022-09-09T13:07:19;3.40;;;0.60;;
64938;SDS011;51453;47.738;7.420;2022-09-09T13:09:47;3.13;;;0.57;;
64938;SDS011;51453;47.738;7.420;2022-09-09T13:12:18;3.40;;;0.60;;
64938;SDS011;51453;47.738;7.420;2022-09-09T13:14:46;4.53;;;0.68;;
64938;SDS011;51453;47.738;7.420;2022-09-09T13:17:20;5.40;;;0.90;;
64938;SDS011;51453;47.738;7.420;2022-09-09T13:19:51;4.97;;;0.70;;
64938;SDS011;51453;47.738;7.420;2022-09-09T13:22:36;5.43;;;1.08;;
64938;SDS011;51453;47.738;7.420;2022-09-09T13:27:35;4.80;;;0.50;;
64938;SDS011;51453;47.738;7.420;2022-09-09T13:35:45;5.93;;;0.60;;
64938;SDS011;51453;47.738;7.420;2022-09-09T13:38:14;0.88;;;0.38;;
64938;SDS011;51453;47.738;7.420;2022-09-09T13:40:51;7.60;;;0.60;;
64938;SDS011;51453;47.738;7.420;2022-09-09T13:43:27;7.03;;;0.55;;
64938;SDS011;51453;47.738;7.420;2022-09-09T13:46:02;0.95;;;0.40;;
64938;SDS011;51453;47.738;7.420;2022-09-09T13:48:29;2.08;;;0.60;;
64938;SDS011;51453;47.738;7.420;2022-09-09T13:53:24;1.92;;;0.40;;
64938;SDS011;51453;47.738;7.420;2022-09-09T13:55:50;4.28;;;0.68;;
64938;SDS011;51453;47.738;7.420;2022-09-09T13:58:17;1.50;;;0.35;;
64938;SDS011;51453;47.738;7.420;2022-09-09T14:00:44;0.88;;;0.30;;
64938;SDS011;51453;47.738;7.420;2022-09-09T14:03:10;0.80;;;0.25;;
64938;SDS011;51453;47.738;7.420;2022-09-09T14:05:36;2.92;;;0.50;;
64938;SDS011;51453;47.738;7.420;2022-09-09T14:08:05;2.85;;;0.50;;
64938;SDS011;51453;47.738;7.420;2022-09-09T14:10:32;2.53;;;0.38;;
64938;SDS011;51453;47.738;7.420;2022-09-09T14:13:02;14.30;;;1.00;;
64938;SDS011;51453;47.738;7.420;2022-09-09T14:15:28;2.92;;;0.40;;
64938;SDS011;51453;47.738;7.420;2022-09-09T14:17:54;3.22;;;0.77;;
64938;SDS011;51453;47.738;7.420;2022-09-09T14:20:20;3.15;;;0.55;;
64938;SDS011;51453;47.738;7.420;2022-09-09T14:22:46;3.33;;;0.70;;
64938;SDS011;51453;47.738;7.420;2022-09-09T14:25:12;3.30;;;0.70;;
64938;SDS011;51453;47.738;7.420;2022-09-09T14:27:39;3.65;;;0.70;;
64938;SDS011;51453;47.738;7.420;2022-09-09T14:30:05;3.42;;;0.40;;
64938;SDS011;51453;47.738;7.420;2022-09-09T14:32:32;1.75;;;0.40;;
64938;SDS011;51453;47.738;7.420;2022-09-09T14:34:58;3.42;;;0.75;;
64938;SDS011;51453;47.738;7.420;2022-09-09T14:37:24;0.88;;;0.30;;
64938;SDS011;51453;47.738;7.420;2022-09-09T14:39:49;3.38;;;0.38;;
64938;SDS011;51453;47.738;7.420;2022-09-09T14:42:15;2.95;;;0.57;;
64938;SDS011;51453;47.738;7.420;2022-09-09T14:44:41;2.63;;;0.50;;
64938;SDS011;51453;47.738;7.420;2022-09-09T14:47:07;2.33;;;0.30;;
64938;SDS011;51453;47.738;7.420;2022-09-09T14:49:34;1.63;;;0.40;;
64938;SDS011;51453;47.738;7.420;2022-09-09T14:52:00;0.43;;;0.22;;
64938;SDS011;51453;47.738;7.420;2022-09-09T14:54:26;1.45;;;0.40;;
64938;SDS011;51453;47.738;7.420;2022-09-09T14:56:53;4.50;;;0.52;;
64938;SDS011;51453;47.738;7.420;2022-09-09T14:59:19;1.90;;;0.50;;
64938;SDS011;51453;47.738;7.420;2022-09-09T15:01:44;3.50;;;0.60;;
64938;SDS011;51453;47.738;7.420;2022-09-09T15:04:11;5.30;;;0.50;;
64938;SDS011;51453;47.738;7.420;2022-09-09T15:06:39;1.75;;;0.50;;
64938;SDS011;51453;47.738;7.420;2022-09-09T15:09:04;3.55;;;0.60;;
64938;SDS011;51453;47.738;7.420;2022-09-09T15:11:32;3.50;;;0.70;;
64938;SDS011;51453;47.738;7.420;2022-09-09T15:14:02;2.92;;;0.75;;
64938;SDS011;51453;47.738;7.420;2022-09-09T15:16:32;1.30;;;0.40;;
64938;SDS011;51453;47.738;7.420;2022-09-09T15:18:59;3.17;;;0.60;;
64938;SDS011;51453;47.738;7.420;2022-09-09T15:21:30;2.50;;;0.57;;
64938;SDS011;51453;47.738;7.420;2022-09-09T15:23:58;2.67;;;0.55;;
64938;SDS011;51453;47.738;7.420;2022-09-09T15:26:24;4.07;;;0.50;;
64938;SDS011;51453;47.738;7.420;2022-09-09T15:28:51;3.30;;;0.70;;
64938;SDS011;51453;47.738;7.420;2022-09-09T15:31:18;2.88;;;0.52;;
64938;SDS011;51453;47.738;7.420;2022-09-09T15:33:56;16.67;;;1.27;;
64938;SDS011;51453;47.738;7.420;2022-09-09T15:36:33;4.88;;;0.95;;
64938;SDS011;51453;47.738;7.420;2022-09-09T15:39:00;2.90;;;0.70;;
64938;SDS011;51453;47.738;7.420;2022-09-09T15:41:28;1.95;;;0.50;;
64938;SDS011;51453;47.738;7.420;2022-09-09T15:43:55;5.00;;;0.77;;
64938;SDS011;51453;47.738;7.420;2022-09-09T15:48:51;3.55;;;1.08;;
64938;SDS011;51453;47.738;7.420;2022-09-09T15:51:17;4.38;;;0.70;;
64938;SDS011;51453;47.738;7.420;2022-09-09T15:53:44;3.30;;;0.60;;
64938;SDS011;51453;47.738;7.420;2022-09-09T15:56:10;3.30;;;1.00;;
64938;SDS011;51453;47.738;7.420;2022-09-09T15:58:36;3.22;;;0.50;;
64938;SDS011;51453;47.738;7.420;2022-09-09T16:01:05;3.85;;;0.77;;
64938;SDS011;51453;47.738;7.420;2022-09-09T16:03:36;1.63;;;0.50;;
64938;SDS011;51453;47.738;7.420;2022-09-09T16:06:04;3.83;;;0.80;;
64938;SDS011;51453;47.738;7.420;2022-09-09T16:08:38;2.28;;;0.50;;
64938;SDS011;51453;47.738;7.420;2022-09-09T16:11:09;3.03;;;0.82;;
64938;SDS011;51453;47.738;7.420;2022-09-09T16:13:40;4.40;;;0.98;;
64938;SDS011;51453;47.738;7.420;2022-09-09T16:16:09;3.85;;;0.70;;
64938;SDS011;51453;47.738;7.420;2022-09-09T16:18:37;2.95;;;0.85;;
64938;SDS011;51453;47.738;7.420;2022-09-09T16:21:05;3.55;;;0.88;;
64938;SDS011;51453;47.738;7.420;2022-09-09T16:23:33;7.20;;;0.95;;
64938;SDS011;51453;47.738;7.420;2022-09-09T16:25:59;4.80;;;0.73;;
64938;SDS011;51453;47.738;7.420;2022-09-09T16:28:26;12.27;;;1.40;;
64938;SDS011;51453;47.738;7.420;2022-09-09T16:30:52;8.60;;;1.73;;
64938;SDS011;51453;47.738;7.420;2022-09-09T16:33:18;6.18;;;0.75;;
64938;SDS011;51453;47.738;7.420;2022-09-09T16:35:44;6.85;;;0.82;;
64938;SDS011;51453;47.738;7.420;2022-09-09T16:38:10;4.13;;;1.10;;
64938;SDS011;51453;47.738;7.420;2022-09-09T16:40:39;3.30;;;0.73;;
64938;SDS011;51453;47.738;7.420;2022-09-09T16:43:06;3.67;;;0.90;;
64938;SDS011;51453;47.738;7.420;2022-09-09T16:45:32;2.70;;;0.68;;
64938;SDS011;51453;47.738;7.420;2022-09-09T16:48:01;1.85;;;0.52;;
64938;SDS011;51453;47.738;7.420;2022-09-09T16:50:27;3.00;;;0.80;;
64938;SDS011;51453;47.738;7.420;2022-09-09T16:52:52;4.80;;;1.10;;
64938;SDS011;51453;47.738;7.420;2022-09-09T16:55:18;2.90;;;0.90;;
64938;SDS011;51453;47.738;7.420;2022-09-09T16:57:47;4.63;;;1.08;;
64938;SDS011;51453;47.738;7.420;2022-09-09T17:00:15;5.00;;;0.95;;
64938;SDS011;51453;47.738;7.420;2022-09-09T17:02:42;3.20;;;0.80;;
64938;SDS011;51453;47.738;7.420;2022-09-09T17:05:08;5.95;;;0.90;;
64938;SDS011;51453;47.738;7.420;2022-09-09T17:07:34;8.45;;;1.10;;
64938;SDS011;51453;47.738;7.420;2022-09-09T17:10:00;3.22;;;1.05;;
64938;SDS011;51453;47.738;7.420;2022-09-09T17:12:26;2.60;;;0.80;;
64938;SDS011;51453;47.738;7.420;2022-09-09T17:14:52;3.85;;;1.25;;
64938;SDS011;51453;47.738;7.420;2022-09-09T17:17:20;3.33;;;1.10;;
64938;SDS011;51453;47.738;7.420;2022-09-09T17:19:46;6.28;;;1.10;;
64938;SDS011;51453;47.738;7.420;2022-09-09T17:22:12;4.68;;;1.02;;
64938;SDS011;51453;47.738;7.420;2022-09-09T17:24:38;8.43;;;1.17;;
64938;SDS011;51453;47.738;7.420;2022-09-09T17:27:05;4.75;;;1.10;;
64938;SDS011;51453;47.738;7.420;2022-09-09T17:29:31;6.75;;;1.15;;
64938;SDS011;51453;47.738;7.420;2022-09-09T17:31:57;2.67;;;0.95;;
64938;SDS011;51453;47.738;7.420;2022-09-09T17:34:23;5.10;;;1.45;;
64938;SDS011;51453;47.738;7.420;2022-09-09T17:36:50;3.60;;;1.10;;